< < Back
Terminal Aerodrome Forecast


Current Version              Previous Versions:   1  2  3  4  5  6  7  8  9  

Terminal Aerodrome Forecast

818
FTUS42 KILM 040812 CCB
TAFFLO
TAF COR
KFLO 040812Z 0406/0506 VRB02KT 6SM BR BKN120
     FM040900 12002KT 5SM BR SCT045 BKN250
      TEMPO 0409/0412 2SM BR SCT002
     FM041300 14006KT P6SM BKN250
     FM041900 18008KT P6SM VCTS FEW030CB BKN050
     FM042300 21004KT P6SM BKN150=



Latest METAR

757
SAUS70 KWBC 041100 RRH
MTRFLO
METAR KFLO 041053Z 06006KT 10SM SCT008 BKN042 24/23 A2995 RMK AO2 SLP139
T02390228


USA.gov is the U.S. government's official web portal to all federal, state and local government web resources and services.